Barcelos, Brazil
Current Conditions -  °F | °C
As of 5:00 PM on Wednesday 17 Dec 2014 (Local Time) from SBTF Reporting Station
Broken Clouds Broken Clouds  
Wind Chill: 86°   Ceiling: 10000
Heat Index: 99°   Visibility: 6mi
Dew Point: 79°   Wind: 3mph
Humidity: 79%   Direction: 210°SSW
Pressure: 29.74"   Gusts: NA
Location:  0.97°S, 62.94°W
Report Text: SBTF 172100Z 21003KT 9999 SCT018 FEW025TCU BKN100 30/26 Q1007
Loading
Personal Weather Stations






























Interactive Weather Map New forecast layout! Learn more

10-Day Weather Forecast

Advertisements
Track Severe Weather on mobile